createdAt,value
2022-10-08T00:03:53.209Z,99.90
2022-10-08T00:07:50.421Z,99.90
2022-10-08T00:11:47.360Z,99.90
2022-10-08T00:15:44.986Z,99.90
2022-10-08T00:19:42.251Z,99.90
2022-10-08T00:23:39.218Z,99.90
2022-10-08T00:27:37.201Z,99.90
2022-10-08T00:31:38.407Z,99.90
2022-10-08T00:35:40.570Z,99.90
2022-10-08T00:39:37.654Z,99.90
2022-10-08T00:43:48.659Z,99.90
2022-10-08T00:47:48.927Z,99.90
2022-10-08T00:51:55.858Z,99.90
2022-10-08T00:55:52.839Z,99.90
2022-10-08T00:59:49.973Z,99.90
2022-10-08T01:03:46.931Z,99.90
2022-10-08T01:08:05.681Z,99.90
2022-10-08T01:12:09.079Z,99.90
2022-10-08T01:16:33.688Z,99.90
2022-10-08T01:21:10.122Z,99.90
2022-10-08T01:25:41.057Z,99.90
2022-10-08T01:29:48.990Z,99.90
2022-10-08T01:34:03.645Z,99.90
2022-10-08T01:38:07.238Z,99.90
2022-10-08T01:42:09.058Z,99.90
2022-10-08T01:46:24.544Z,99.90
2022-10-08T01:50:37.014Z,99.90
2022-10-08T01:54:37.400Z,99.90
2022-10-08T01:59:00.330Z,99.90
2022-10-08T02:02:57.330Z,99.90
2022-10-08T02:06:57.984Z,99.90
2022-10-08T02:10:54.993Z,99.90
2022-10-08T02:14:55.817Z,99.90
2022-10-08T02:19:05.732Z,99.90
2022-10-08T02:23:17.209Z,99.90
2022-10-08T02:27:17.312Z,99.90
2022-10-08T02:31:33.353Z,99.90
2022-10-08T02:35:46.030Z,99.90
2022-10-08T02:39:51.233Z,99.90
2022-10-08T02:43:52.001Z,99.90
2022-10-08T02:47:56.794Z,99.90
2022-10-08T02:51:57.388Z,99.90
2022-10-08T02:56:08.423Z,99.90
2022-10-08T03:00:07.593Z,99.90
2022-10-08T03:04:22.008Z,99.90
2022-10-08T03:08:21.459Z,99.90
2022-10-08T03:12:19.346Z,99.90
2022-10-08T03:16:22.582Z,99.90
2022-10-08T03:20:20.046Z,99.90
2022-10-08T03:24:17.034Z,99.90
2022-10-08T03:28:14.155Z,99.90
2022-10-08T03:32:11.186Z,99.90
2022-10-08T03:36:08.260Z,99.90
2022-10-08T03:40:05.907Z,99.90
2022-10-08T03:44:02.876Z,99.90
2022-10-08T03:47:59.816Z,99.90
2022-10-08T03:51:56.806Z,99.90
2022-10-08T03:55:54.641Z,99.90
2022-10-08T03:59:51.660Z,99.90
2022-10-08T04:03:48.933Z,99.90
2022-10-08T04:07:45.919Z,99.90
2022-10-08T04:11:43.032Z,99.90
2022-10-08T04:15:40.074Z,99.90
2022-10-08T04:19:37.109Z,99.90
2022-10-08T04:23:36.613Z,99.90
2022-10-08T04:27:33.641Z,99.90
2022-10-08T04:31:30.830Z,99.90
2022-10-08T04:35:27.814Z,99.90
2022-10-08T04:39:24.826Z,99.90
2022-10-08T04:43:22.564Z,99.90
2022-10-08T04:47:22.012Z,99.90
2022-10-08T04:51:21.096Z,99.90
2022-10-08T04:55:18.188Z,99.90
2022-10-08T04:59:15.252Z,99.90
2022-10-08T05:03:12.278Z,99.90
2022-10-08T05:07:09.255Z,99.90
2022-10-08T05:11:06.830Z,99.90
2022-10-08T05:15:04.424Z,99.90
2022-10-08T05:19:01.448Z,99.90
2022-10-08T05:22:58.369Z,99.90
2022-10-08T05:26:59.283Z,99.90
2022-10-08T05:31:01.396Z,99.90
2022-10-08T05:34:58.935Z,99.90
2022-10-08T05:38:58.996Z,99.90
2022-10-08T05:42:56.626Z,99.90
2022-10-08T05:46:53.665Z,99.90
2022-10-08T05:50:50.682Z,99.90
2022-10-08T05:54:47.646Z,99.90
2022-10-08T05:58:46.178Z,99.90
2022-10-08T06:02:43.259Z,99.90
2022-10-08T06:06:43.518Z,99.90
2022-10-08T06:10:52.698Z,99.90
2022-10-08T06:14:49.783Z,99.90
2022-10-08T06:18:46.853Z,99.90
2022-10-08T06:22:43.841Z,99.90
2022-10-08T06:26:43.648Z,99.90
2022-10-08T06:30:42.505Z,99.90
2022-10-08T06:34:39.488Z,99.90
2022-10-08T06:38:36.544Z,99.90
2022-10-08T06:42:33.507Z,99.90
2022-10-08T06:46:34.227Z,99.90
2022-10-08T06:50:31.351Z,99.90
2022-10-08T06:54:28.449Z,99.90
2022-10-08T06:58:26.313Z,99.90
2022-10-08T07:02:23.742Z,99.90
2022-10-08T07:06:21.428Z,99.90
2022-10-08T07:10:18.695Z,99.90
2022-10-08T07:14:15.803Z,99.90
2022-10-08T07:18:12.986Z,99.90
2022-10-08T07:22:10.336Z,99.90
2022-10-08T07:26:20.186Z,99.90
2022-10-08T07:30:17.360Z,99.90
2022-10-08T07:34:16.890Z,99.90
2022-10-08T07:38:18.805Z,99.90
2022-10-08T07:42:16.091Z,99.90
2022-10-08T07:46:14.293Z,99.90
2022-10-08T07:50:11.577Z,99.90
2022-10-08T07:54:14.136Z,99.90
2022-10-08T07:58:11.304Z,99.90
2022-10-08T08:02:09.933Z,99.90
2022-10-08T08:06:12.238Z,99.90
2022-10-08T08:10:09.536Z,99.90
2022-10-08T08:14:07.460Z,99.90
2022-10-08T08:18:04.655Z,99.90
2022-10-08T08:22:01.911Z,99.90
2022-10-08T08:26:04.402Z,99.90
2022-10-08T08:30:01.584Z,99.90
2022-10-08T08:34:04.013Z,99.90
2022-10-08T08:38:00.959Z,99.90
2022-10-08T08:42:22.624Z,99.90
2022-10-08T08:46:21.891Z,99.90
2022-10-08T08:50:48.896Z,99.90
2022-10-08T08:54:55.472Z,99.90
2022-10-08T08:59:13.716Z,99.90
2022-10-08T09:03:34.811Z,99.90
2022-10-08T09:07:51.680Z,99.90
2022-10-08T09:11:49.380Z,99.90
2022-10-08T09:15:47.145Z,99.90
2022-10-08T09:19:45.075Z,99.90
2022-10-08T09:23:42.663Z,99.90
2022-10-08T09:27:45.491Z,99.90
2022-10-08T09:31:49.709Z,99.90
2022-10-08T09:35:52.068Z,99.90
2022-10-08T09:40:19.670Z,99.90
2022-10-08T09:44:23.692Z,99.90
2022-10-08T09:48:24.177Z,99.90
2022-10-08T09:52:26.994Z,99.90
2022-10-08T09:56:29.556Z,99.90
2022-10-08T10:00:35.744Z,99.90
2022-10-08T10:04:38.707Z,99.90
2022-10-08T10:08:50.564Z,99.90
2022-10-08T10:13:06.564Z,99.90
2022-10-08T10:17:15.084Z,99.90
2022-10-08T10:21:23.219Z,99.90
2022-10-08T10:25:50.220Z,99.90
2022-10-08T10:30:19.919Z,99.90
2022-10-08T10:34:28.914Z,99.90
2022-10-08T10:38:31.035Z,99.90
2022-10-08T10:42:47.222Z,99.90
2022-10-08T10:46:52.871Z,99.90
2022-10-08T10:51:07.237Z,99.90
2022-10-08T10:55:38.473Z,99.90
2022-10-08T11:00:00.400Z,99.90
2022-10-08T11:04:23.940Z,99.90
2022-10-08T11:08:49.231Z,99.90
2022-10-08T11:12:54.001Z,99.90
2022-10-08T11:17:19.916Z,99.90
2022-10-08T11:21:39.290Z,99.90
2022-10-08T11:26:14.966Z,99.90
2022-10-08T11:30:17.817Z,99.90
2022-10-08T11:34:37.563Z,99.90
2022-10-08T11:38:45.605Z,99.90
2022-10-08T11:43:08.350Z,99.90
2022-10-08T11:47:42.572Z,99.90
2022-10-08T11:51:53.566Z,99.90
2022-10-08T11:55:59.466Z,99.90
2022-10-08T12:00:34.989Z,99.90
2022-10-08T12:04:36.728Z,99.90
2022-10-08T12:08:51.763Z,99.90
2022-10-08T12:12:52.622Z,99.90
2022-10-08T12:16:55.473Z,99.90
2022-10-08T12:21:17.443Z,99.90
2022-10-08T12:25:59.504Z,99.50
2022-10-08T12:30:03.256Z,99.20
2022-10-08T12:34:17.680Z,97.90
2022-10-08T12:38:45.207Z,99.30
2022-10-08T12:42:42.507Z,97.70
2022-10-08T12:47:05.274Z,96.30
2022-10-08T12:51:02.552Z,94.70
2022-10-08T12:55:04.190Z,95.10
2022-10-08T12:59:04.856Z,96.20
2022-10-08T13:03:11.967Z,96.80
2022-10-08T13:07:28.308Z,96.70
2022-10-08T13:11:27.607Z,97.40
2022-10-08T13:15:26.252Z,97.80
2022-10-08T13:19:41.763Z,97.20
2022-10-08T13:23:41.466Z,95.30
2022-10-08T13:27:40.288Z,94.60
2022-10-08T13:31:37.455Z,95.60
2022-10-08T13:35:34.567Z,96.70
2022-10-08T13:39:38.910Z,98.30
2022-10-08T13:43:35.954Z,99.80
2022-10-08T13:47:32.899Z,99.90
2022-10-08T13:51:29.892Z,99.90
2022-10-08T13:55:34.851Z,99.10
2022-10-08T13:59:31.830Z,98.70
2022-10-08T14:03:31.238Z,98.10
2022-10-08T14:07:32.918Z,98.40
2022-10-08T14:11:31.141Z,97.70
2022-10-08T14:15:28.156Z,98.90
2022-10-08T14:19:25.121Z,99.50
2022-10-08T14:23:22.268Z,99.50
2022-10-08T14:27:19.334Z,97.90
2022-10-08T14:31:16.402Z,96.00
2022-10-08T14:35:14.272Z,94.90
2022-10-08T14:39:11.529Z,93.60
2022-10-08T14:43:08.507Z,94.60
2022-10-08T14:47:05.559Z,94.40
2022-10-08T14:51:02.533Z,94.80
2022-10-08T14:54:59.502Z,95.80
2022-10-08T14:58:56.810Z,95.50
2022-10-08T15:02:53.803Z,95.60
2022-10-08T15:06:50.798Z,96.90
2022-10-08T15:10:47.885Z,98.90
2022-10-08T15:14:44.916Z,98.30
2022-10-08T15:18:41.959Z,97.80
2022-10-08T15:22:39.247Z,97.70
2022-10-08T15:26:36.402Z,98.50
2022-10-08T15:30:33.423Z,98.10
2022-10-08T15:34:30.542Z,96.90
2022-10-08T15:38:27.555Z,97.00
2022-10-08T15:42:24.508Z,96.90
2022-10-08T15:46:22.927Z,97.70
2022-10-08T15:50:20.011Z,98.10
2022-10-08T15:54:17.135Z,98.30
2022-10-08T15:58:32.592Z,99.30
2022-10-08T16:02:31.110Z,99.90
2022-10-08T16:06:33.844Z,99.90
2022-10-08T16:10:30.817Z,99.90
2022-10-08T16:14:27.936Z,99.90
2022-10-08T16:18:24.912Z,99.90
2022-10-08T16:22:21.928Z,99.90
2022-10-08T16:26:21.325Z,99.90
2022-10-08T16:30:18.329Z,99.90
2022-10-08T16:34:22.123Z,99.90
2022-10-08T16:38:19.931Z,99.90
2022-10-08T16:42:20.009Z,99.90
2022-10-08T16:46:27.357Z,99.90
2022-10-08T16:50:24.454Z,99.90
2022-10-08T16:54:21.956Z,99.90
2022-10-08T16:58:19.010Z,99.90
2022-10-08T17:02:16.133Z,99.90
2022-10-08T17:06:13.718Z,99.90
2022-10-08T17:10:11.264Z,99.90
2022-10-08T17:14:11.681Z,99.90
2022-10-08T17:18:09.014Z,99.90
2022-10-08T17:22:06.495Z,99.90
2022-10-08T17:26:10.056Z,99.90
2022-10-08T17:30:07.899Z,99.90
2022-10-08T17:34:05.942Z,99.90
2022-10-08T17:38:03.366Z,99.90
2022-10-08T17:42:04.819Z,99.90
2022-10-08T17:46:16.541Z,99.90
2022-10-08T17:50:14.210Z,99.90
2022-10-08T17:54:19.236Z,99.90
2022-10-08T17:58:16.243Z,99.90
2022-10-08T18:02:13.339Z,99.90
2022-10-08T18:06:12.047Z,99.90
2022-10-08T18:10:09.775Z,99.90
2022-10-08T18:14:08.254Z,99.90
2022-10-08T18:18:05.406Z,99.90
2022-10-08T18:22:02.494Z,99.90
2022-10-08T18:26:15.626Z,99.90
2022-10-08T18:30:13.206Z,99.90
2022-10-08T18:34:16.459Z,99.90
2022-10-08T18:38:13.576Z,99.90
2022-10-08T18:42:10.627Z,99.90
2022-10-08T18:46:10.836Z,99.90
2022-10-08T18:50:08.878Z,99.90
2022-10-08T18:54:07.962Z,99.90
2022-10-08T18:58:04.899Z,99.90
2022-10-08T19:02:02.029Z,99.90
2022-10-08T19:05:59.217Z,99.90
2022-10-08T19:09:56.728Z,99.90
2022-10-08T19:13:54.739Z,99.90
2022-10-08T19:17:51.749Z,99.90
2022-10-08T19:21:49.688Z,99.90
2022-10-08T19:25:47.018Z,99.90
2022-10-08T19:29:44.390Z,99.90
2022-10-08T19:33:41.719Z,99.90
2022-10-08T19:37:39.152Z,99.90
2022-10-08T19:41:39.193Z,99.90
2022-10-08T19:45:36.235Z,99.90
2022-10-08T19:49:33.485Z,99.90
2022-10-08T19:53:31.541Z,99.90
2022-10-08T19:57:28.773Z,99.90
2022-10-08T20:01:30.846Z,99.90
2022-10-08T20:05:28.302Z,99.90
2022-10-08T20:09:26.064Z,99.90
2022-10-08T20:13:23.316Z,99.90
2022-10-08T20:17:20.359Z,99.90
2022-10-08T20:21:18.737Z,99.90
2022-10-08T20:25:19.292Z,99.90
2022-10-08T20:29:21.458Z,99.90
2022-10-08T20:33:19.859Z,99.90
2022-10-08T20:37:17.057Z,99.90
2022-10-08T20:41:14.130Z,99.90
2022-10-08T20:45:12.140Z,99.90
2022-10-08T20:49:13.328Z,99.90
2022-10-08T20:53:10.905Z,99.90
2022-10-08T20:57:08.024Z,99.90
2022-10-08T21:01:15.927Z,99.90
2022-10-08T21:05:13.290Z,99.90
2022-10-08T21:09:11.627Z,99.90
2022-10-08T21:13:08.888Z,99.90
2022-10-08T21:17:05.837Z,99.90
2022-10-08T21:21:06.343Z,99.90
2022-10-08T21:25:03.434Z,99.90
2022-10-08T21:29:03.703Z,99.90
2022-10-08T21:33:00.834Z,99.90
2022-10-08T21:36:57.806Z,99.90
2022-10-08T21:41:11.331Z,99.90
2022-10-08T21:45:08.955Z,99.90
2022-10-08T21:49:11.771Z,99.90
2022-10-08T21:53:08.744Z,99.90
2022-10-08T21:57:06.024Z,99.90
2022-10-08T22:01:03.399Z,99.90
2022-10-08T22:05:00.474Z,99.90
2022-10-08T22:08:58.897Z,99.90
2022-10-08T22:12:55.927Z,99.90
2022-10-08T22:16:53.410Z,99.90
2022-10-08T22:20:51.872Z,99.90
2022-10-08T22:24:48.885Z,99.90
2022-10-08T22:28:46.579Z,99.90
2022-10-08T22:32:43.590Z,99.90
2022-10-08T22:36:44.120Z,99.90
2022-10-08T22:40:41.086Z,99.90
2022-10-08T22:44:38.054Z,99.90
2022-10-08T22:48:35.432Z,99.90
2022-10-08T22:52:32.386Z,99.90
2022-10-08T22:56:31.114Z,99.90
2022-10-08T23:00:28.054Z,99.90
2022-10-08T23:04:25.838Z,99.90
2022-10-08T23:08:22.788Z,99.90
2022-10-08T23:12:19.879Z,99.90
2022-10-08T23:16:17.192Z,99.90
2022-10-08T23:20:14.422Z,99.90
2022-10-08T23:24:11.401Z,99.90
2022-10-08T23:28:08.400Z,99.90
2022-10-08T23:32:05.510Z,99.90
2022-10-08T23:36:02.635Z,99.90
2022-10-08T23:39:59.624Z,99.90
2022-10-08T23:43:58.345Z,99.90
2022-10-08T23:47:55.388Z,99.90
2022-10-08T23:51:52.404Z,99.90
2022-10-08T23:55:49.735Z,99.90
2022-10-08T23:59:47.346Z,99.90
